Time;durP1;ratioP1;P1;durP2;ratioP2;P2;SDS_P1;SDS_P2;PMS_P1;PMS_P2;Temp;Humidity;BMP_temperature;BMP_pressure;BME280_temperature;BME280_humidity;BME280_pressure;Samples;Min_cycle;Max_cycle;Signal;HPM_P1;HPM_P2
2022/05/09 00:01:31;;;;;;;7.70;2.70;;;;;;;17.13;37.23;95071.00;5130465;28;20188;-80
2022/05/09 00:03:58;;;;;;;4.30;3.17;;;;;;;17.13;37.21;95074.41;5145391;27;20227;-79
2022/05/09 00:06:26;;;;;;;4.27;3.13;;;;;;;17.10;37.35;95074.75;5149125;27;20192;-79
2022/05/09 00:08:53;;;;;;;5.93;3.33;;;;;;;17.07;37.46;95077.66;5151291;27;20175;-79
2022/05/09 00:11:20;;;;;;;6.30;3.03;;;;;;;16.83;37.71;95039.00;5151255;27;20224;-78
2022/05/09 00:13:47;;;;;;;4.97;3.37;;;;;;;17.02;37.68;95074.78;5151528;27;20195;-79
2022/05/09 00:16:14;;;;;;;3.70;3.13;;;;;;;17.00;37.97;95074.13;5152318;27;20188;-78
2022/05/09 00:18:41;;;;;;;6.27;3.40;;;;;;;16.66;37.89;95025.31;5155106;27;20195;-79
2022/05/09 00:21:09;;;;;;;4.13;3.10;;;;;;;16.46;38.05;94997.31;5152820;27;20191;-78
2022/05/09 00:23:37;;;;;;;5.13;3.07;;;;;;;16.93;38.09;95073.22;5133632;27;20655;-79
2022/05/09 00:26:04;;;;;;;5.10;3.10;;;;;;;16.62;37.87;95037.75;5134236;27;20188;-79
2022/05/09 00:28:31;;;;;;;5.17;2.53;;;;;;;16.87;38.17;95077.25;5133879;27;20200;-81
2022/05/09 00:30:58;;;;;;;3.43;3.13;;;;;;;16.86;38.35;95093.72;5131792;27;20227;-78
2022/05/09 00:33:25;;;;;;;3.03;2.63;;;;;;;16.83;38.10;95083.72;5145414;27;20184;-79
2022/05/09 00:35:52;;;;;;;3.00;2.70;;;;;;;16.80;38.03;95078.91;5154240;27;20188;-80
2022/05/09 00:38:19;;;;;;;6.87;3.27;;;;;;;16.77;38.17;95085.19;5154583;27;20639;-78
2022/05/09 00:43:33;;;;;;;3.27;2.83;;;;;;;16.60;38.17;95062.13;5133140;27;20245;-78
2022/05/09 00:46:00;;;;;;;4.30;3.03;;;;;;;16.39;38.24;95031.69;5133934;27;20188;-79
2022/05/09 00:48:27;;;;;;;5.60;2.60;;;;;;;16.29;38.26;95030.09;5134902;27;20181;-82
2022/05/09 00:50:55;;;;;;;4.33;2.83;;;;;;;16.49;38.19;95066.69;5142079;27;20224;-79
2022/05/09 00:53:22;;;;;;;3.57;2.73;;;;;;;16.62;38.07;95088.59;5149795;27;20195;-79
2022/05/09 00:55:56;;;;;;;5.20;2.87;;;;;;;16.42;38.46;95065.72;5137639;27;20639;-80
2022/05/09 00:58:26;;;;;;;5.43;3.03;;;;;;;16.49;38.38;95084.75;5143116;27;20186;-80
2022/05/09 01:00:55;;;;;;;3.63;2.87;;;;;;;16.51;38.39;95098.28;5137359;27;20184;-78
2022/05/09 01:03:31;;;;;;;4.47;2.80;;;;;;;16.19;38.43;95047.53;5139461;27;20240;-80
2022/05/09 01:05:58;;;;;;;2.90;2.60;;;;;;;16.39;38.50;95086.69;5132015;27;20188;-79
2022/05/09 01:08:25;;;;;;;3.20;2.67;;;;;;;16.45;38.51;95103.28;5132373;27;20181;-79
2022/05/09 01:10:55;;;;;;;3.77;2.57;;;;;;;16.19;38.61;95070.75;5131768;27;20204;-79
2022/05/09 01:13:25;;;;;;;3.50;2.70;;;;;;;16.40;38.70;95097.81;5131493;27;20637;-80
2022/05/09 01:15:54;;;;;;;4.70;2.80;;;;;;;16.37;38.79;95090.44;5134668;27;20659;-79
2022/05/09 01:18:22;;;;;;;5.17;2.73;;;;;;;16.36;38.95;95099.13;5136124;27;20176;-79
2022/05/09 01:20:49;;;;;;;5.20;2.63;;;;;;;16.33;38.96;95100.25;5136928;27;21203;-79
2022/05/09 01:23:17;;;;;;;3.23;2.70;;;;;;;15.89;39.26;95037.84;5146169;27;20179;-79
2022/05/09 01:25:45;;;;;;;5.40;2.70;;;;;;;16.10;39.27;95070.91;5144441;27;20214;-78
2022/05/09 01:28:11;;;;;;;4.37;2.70;;;;;;;15.76;39.40;95017.75;5138238;27;20452;-77
2022/05/09 01:30:47;;;;;;;4.47;2.77;;;;;;;15.88;39.37;95042.22;5137432;27;20218;-79
2022/05/09 01:33:20;;;;;;;4.93;2.87;;;;;;;16.19;39.20;95093.16;5139298;27;20191;-78
2022/05/09 01:35:52;;;;;;;3.50;3.00;;;;;;;16.14;39.47;95103.97;5141919;27;20184;-78
2022/05/09 01:38:26;;;;;;;4.30;3.17;;;;;;;16.13;39.29;95088.66;5134628;27;20180;-78
2022/05/09 01:40:53;;;;;;;5.47;2.53;;;;;;;15.96;39.21;95068.00;5135942;27;20530;-79
2022/05/09 01:43:33;;;;;;;5.90;2.90;;;;;;;16.09;39.40;95102.84;5136895;27;20183;-78
2022/05/09 01:46:00;;;;;;;5.03;2.40;;;;;;;15.71;39.69;95043.97;5132993;27;20195;-78
2022/05/09 01:51:12;;;;;;;5.13;2.90;;;;;;;16.00;39.47;95096.88;5151484;27;20210;-79
2022/05/09 01:53:40;;;;;;;6.03;2.83;;;;;;;15.97;39.81;95099.78;5146911;27;20180;-80
2022/05/09 01:56:07;;;;;;;4.87;2.57;;;;;;;15.51;39.77;95027.19;5133390;27;20697;-80
2022/05/09 01:58:34;;;;;;;5.57;2.80;;;;;;;15.64;39.61;95050.75;5132239;27;20200;-80
2022/05/09 02:01:01;;;;;;;3.17;2.87;;;;;;;15.91;39.66;95100.41;5142919;27;20185;-78
2022/05/09 02:03:27;;;;;;;4.53;2.77;;;;;;;15.49;39.54;95032.50;5142731;27;20218;-79
2022/05/09 02:05:54;;;;;;;4.20;2.80;;;;;;;15.86;39.59;95088.00;5130874;27;20194;-80
2022/05/09 02:08:21;;;;;;;3.97;2.70;;;;;;;15.84;39.77;95092.50;5136455;27;20579;-78
2022/05/09 02:10:49;;;;;;;5.00;2.70;;;;;;;15.82;39.50;95093.66;5130669;27;20307;-78
2022/05/09 02:13:16;;;;;;;3.00;2.57;;;;;;;15.71;39.98;95081.84;5131248;27;20176;-79
2022/05/09 02:15:44;;;;;;;3.37;2.67;;;;;;;15.77;39.90;95094.13;5140766;27;20202;-80
2022/05/09 02:18:11;;;;;;;2.50;2.30;;;;;;;15.60;39.90;95077.78;5143381;27;20188;-79
2022/05/09 02:20:38;;;;;;;3.10;2.80;;;;;;;15.73;39.84;95101.38;5139593;27;20184;-79
2022/05/09 02:23:05;;;;;;;3.70;2.73;;;;;;;15.59;40.15;95085.66;5147081;27;20599;-79
2022/05/09 02:25:33;;;;;;;3.63;2.30;;;;;;;15.69;40.10;95102.66;5150116;27;20647;-79
2022/05/09 02:28:06;;;;;;;2.63;2.40;;;;;;;15.66;39.99;95112.47;5142584;27;20271;-81
2022/05/09 02:30:33;;;;;;;2.70;2.50;;;;;;;15.31;40.24;95055.81;5148419;27;20299;-79
2022/05/09 02:33:00;;;;;;;2.97;2.77;;;;;;;15.54;40.27;95101.63;5136194;27;20206;-79
2022/05/09 02:35:27;;;;;;;4.27;2.40;;;;;;;15.45;40.50;95090.47;5137023;27;20189;-81
2022/05/09 02:37:54;;;;;;;3.77;3.10;;;;;;;15.55;40.45;95106.63;5138685;27;20274;-78
2022/05/09 02:40:24;;;;;;;3.50;2.53;;;;;;;15.55;40.52;95108.41;5140235;27;20658;-80
2022/05/09 02:42:52;;;;;;;3.77;2.27;;;;;;;15.53;40.60;95111.13;5139100;27;20189;-80
2022/05/09 02:45:20;;;;;;;4.07;3.00;;;;;;;15.49;40.70;95106.44;5139691;27;20215;-79
2022/05/09 02:47:47;;;;;;;5.47;2.40;;;;;;;15.48;40.66;95104.84;5136891;27;20192;-79
2022/05/09 02:50:15;;;;;;;6.37;2.80;;;;;;;15.45;40.88;95105.94;5134065;27;20188;-79
2022/05/09 02:52:42;;;;;;;7.60;2.50;;;;;;;15.42;40.92;95110.63;5138602;27;20240;-79
2022/05/09 02:55:11;;;;;;;5.60;2.80;;;;;;;15.01;40.68;95043.50;5133475;27;20180;-78
2022/05/09 02:57:38;;;;;;;2.93;2.27;;;;;;;14.91;41.04;95032.53;5140153;27;20175;-80
2022/05/09 03:00:08;;;;;;;4.23;2.87;;;;;;;15.25;41.14;95095.13;5137606;27;20202;-80
2022/05/09 03:02:37;;;;;;;6.63;2.63;;;;;;;15.11;41.08;95074.28;5137292;27;20224;-81
2022/05/09 03:05:04;;;;;;;4.70;2.40;;;;;;;15.35;41.15;95117.38;5138538;27;20183;-78
2022/05/09 03:07:31;;;;;;;5.07;2.53;;;;;;;15.32;41.08;95121.03;5136074;27;20240;-79
2022/05/09 03:09:58;;;;;;;3.17;2.83;;;;;;;15.30;41.37;95126.38;5134068;27;20188;-79
2022/05/09 03:12:24;;;;;;;4.50;2.70;;;;;;;14.72;41.17;95033.56;5129970;27;20713;-79
2022/05/09 03:14:51;;;;;;;4.80;2.87;;;;;;;15.06;41.65;95093.59;5135251;27;20195;-80
2022/05/09 03:17:18;;;;;;;4.10;2.93;;;;;;;15.01;41.41;95097.59;5129786;27;20203;-78
2022/05/09 03:19:47;;;;;;;4.40;3.00;;;;;;;15.01;41.72;95098.41;5129868;27;20202;-78
2022/05/09 03:22:14;;;;;;;3.83;2.93;;;;;;;14.97;41.61;95096.28;5132054;27;20188;-80
2022/05/09 03:24:41;;;;;;;5.07;3.00;;;;;;;15.24;41.81;95141.63;5135282;27;20171;-79
2022/05/09 03:27:12;;;;;;;4.43;2.83;;;;;;;15.21;41.81;95141.97;5137603;27;20585;-78
2022/05/09 03:29:39;;;;;;;5.43;2.73;;;;;;;14.98;41.81;95106.44;5132773;27;20322;-78
2022/05/09 03:32:07;;;;;;;4.20;3.40;;;;;;;14.57;41.85;95038.50;5137550;27;20204;-78
2022/05/09 03:34:34;;;;;;;5.77;2.83;;;;;;;14.92;42.17;95096.75;5137771;27;20213;-78
2022/05/09 03:37:02;;;;;;;5.73;3.37;;;;;;;15.20;42.16;95145.50;5125175;27;20196;-77
2022/05/09 03:39:29;;;;;;;5.17;3.10;;;;;;;15.21;42.17;95147.91;5137025;27;20188;-79
2022/05/09 03:41:56;;;;;;;4.70;2.97;;;;;;;14.88;42.30;95095.44;5130953;27;20176;-80
2022/05/09 03:44:22;;;;;;;5.77;3.13;;;;;;;15.09;42.37;95127.75;5135663;27;20180;-78
2022/05/09 03:46:49;;;;;;;4.33;3.60;;;;;;;15.11;42.61;95131.78;5130219;27;20202;-79
2022/05/09 03:49:17;;;;;;;7.03;3.60;;;;;;;15.01;42.45;95115.63;5130457;27;20643;-79
2022/05/09 03:51:44;;;;;;;6.37;2.90;;;;;;;14.91;42.81;95102.06;5133871;27;20610;-79
2022/05/09 03:54:12;;;;;;;6.03;3.80;;;;;;;15.28;42.57;95151.50;5144456;27;20315;-79
2022/05/09 03:56:39;;;;;;;5.30;3.07;;;;;;;15.29;42.74;95145.38;5143502;27;20192;-78
2022/05/09 03:59:08;;;;;;;5.17;3.60;;;;;;;15.02;42.62;95100.00;5146631;27;20199;-80
2022/05/09 04:01:35;;;;;;;5.17;3.20;;;;;;;15.34;42.98;95147.50;5147025;27;20261;-79
2022/05/09 04:04:02;;;;;;;6.63;3.90;;;;;;;15.23;43.07;95122.78;5138375;27;20269;-77
2022/05/09 04:06:28;;;;;;;6.43;3.00;;;;;;;15.32;42.90;95129.59;5146086;27;20176;-78
2022/05/09 04:08:56;;;;;;;5.73;3.60;;;;;;;15.46;43.11;95148.03;5139398;27;20198;-78
2022/05/09 04:11:24;;;;;;;3.83;3.40;;;;;;;15.18;43.38;95101.84;5137118;27;20331;-78
2022/05/09 04:13:51;;;;;;;9.03;3.80;;;;;;;15.52;43.23;95149.97;5138877;27;20184;-78
2022/05/09 04:19:02;;;;;;;5.30;3.80;;;;;;;15.60;43.25;95147.41;5136917;27;20180;-78
2022/05/09 04:21:29;;;;;;;6.57;3.60;;;;;;;15.63;43.29;95143.69;5147644;27;20774;-79
2022/05/09 04:23:58;;;;;;;7.27;4.00;;;;;;;15.49;43.53;95125.28;5155004;27;20194;-79
2022/05/09 04:26:27;;;;;;;13.13;4.60;;;;;;;15.62;43.34;95140.31;5154125;27;20195;-78
2022/05/09 04:28:54;;;;;;;7.67;4.23;;;;;;;15.67;43.04;95134.72;5133788;27;20197;-78
2022/05/09 04:31:22;;;;;;;11.30;3.97;;;;;;;15.78;43.30;95148.13;5134635;27;20586;-79
2022/05/09 04:33:49;;;;;;;8.40;4.77;;;;;;;15.83;43.31;95152.78;5148931;27;20183;-79
2022/05/09 04:36:16;;;;;;;12.50;3.77;;;;;;;15.86;43.57;95159.44;5149863;27;20192;-79
2022/05/09 04:38:43;;;;;;;11.43;4.00;;;;;;;15.39;43.60;95078.25;5154874;27;20183;-82
2022/05/09 04:41:13;;;;;;;9.63;4.37;;;;;;;15.46;43.44;95084.38;5154952;27;20188;-77
2022/05/09 04:43:42;;;;;;;6.77;3.90;;;;;;;15.87;43.81;95148.94;5154396;27;20183;-78
2022/05/09 04:46:08;;;;;;;7.53;4.67;;;;;;;16.02;43.87;95160.25;5153988;27;20198;-84
2022/05/09 04:48:35;;;;;;;6.53;4.00;;;;;;;16.17;43.78;95165.59;5148513;27;20176;-80
2022/05/09 04:51:02;;;;;;;7.37;3.90;;;;;;;16.43;43.63;95169.78;5135939;27;20195;-82
2022/05/09 04:53:29;;;;;;;4.43;3.57;;;;;;;16.65;44.87;95145.88;5140786;27;20191;-78
2022/05/09 04:55:56;;;;;;;5.27;4.17;;;;;;;17.18;46.00;95170.31;5143773;27;20196;-85
2022/05/09 04:58:23;;;;;;;7.83;4.30;;;;;;;17.23;46.50;95093.09;5140413;27;20188;-85
2022/05/09 05:00:52;;;;;;;8.50;3.60;;;;;;;17.02;46.81;94961.09;5143175;27;20198;-84
2022/05/09 05:03:19;;;;;;;4.90;3.43;;;;;;;18.33;46.49;95059.22;5154297;27;20241;-87
2022/05/09 05:05:46;;;;;;;4.83;3.47;;;;;;;19.26;46.33;95089.81;5154684;27;20198;-78
2022/05/09 05:08:14;;;;;;;4.93;3.73;;;;;;;20.34;47.99;95152.25;5155332;27;20192;-84
2022/05/09 05:10:42;;;;;;;7.10;3.60;;;;;;;20.20;46.94;95037.03;5144695;27;20184;-84
2022/05/09 05:13:12;;;;;;;4.70;3.17;;;;;;;20.32;46.17;94964.59;5150877;27;20237;-82
2022/05/09 05:15:39;;;;;;;5.70;3.30;;;;;;;22.18;45.09;95180.34;5118090;27;20204;-80
2022/05/09 05:18:08;;;;;;;7.27;3.23;;;;;;;22.68;43.70;95177.41;5141980;27;20195;-80
2022/05/09 05:20:35;;;;;;;6.78;3.00;;;;;;;23.16;43.47;95175.38;5148150;27;20194;-80
2022/05/09 05:23:02;;;;;;;6.47;4.10;;;;;;;23.51;42.38;95154.19;5153151;27;20282;-80
2022/05/09 05:25:30;;;;;;;12.07;4.00;;;;;;;24.02;42.27;95172.47;5152718;27;20600;-83
2022/05/09 05:27:58;;;;;;;7.93;3.35;;;;;;;24.42;40.58;95180.09;5154292;27;20198;-83
2022/05/09 05:30:25;;;;;;;6.78;3.60;;;;;;;24.75;39.88;95172.00;5152223;27;20192;-79
2022/05/09 05:32:54;;;;;;;5.20;3.30;;;;;;;25.12;39.00;95179.16;5151808;27;20718;-80
2022/05/09 05:35:37;;;;;;;6.85;3.20;;;;;;;24.96;39.09;95094.16;5155553;27;20195;-79
2022/05/09 05:38:04;;;;;;;7.38;2.88;;;;;;;25.42;38.92;95113.78;5155596;27;20191;-82
2022/05/09 05:40:43;;;;;;;;;;;;;;;;;;;;;
2022/05/09 05:43:12;;;;;;;8.45;3.85;;;;;;;26.28;34.00;95181.63;5165927;27;20267;-82
2022/05/09 05:45:38;;;;;;;5.30;3.08;;;;;;;26.27;33.80;95166.13;5157620;27;20240;-80
2022/05/09 05:48:06;;;;;;;5.00;3.58;;;;;;;26.41;33.89;95166.72;5156632;27;20188;-85
2022/05/09 05:50:33;;;;;;;6.53;3.70;;;;;;;26.66;35.00;95188.38;5157725;27;20190;-80
2022/05/09 05:53:01;;;;;;;5.68;3.22;;;;;;;26.88;35.58;95183.38;5168161;27;20215;-80
2022/05/09 05:55:27;;;;;;;3.47;3.17;;;;;;;26.97;35.58;95162.84;5150367;27;20188;-80
2022/05/09 05:57:54;;;;;;;4.55;3.00;;;;;;;27.34;35.12;95181.03;5149822;27;20652;-80
2022/05/09 06:00:23;;;;;;;6.20;3.70;;;;;;;27.54;35.05;95180.63;5149428;27;20199;-80
2022/05/09 06:02:51;;;;;;;5.05;3.38;;;;;;;27.75;34.60;95177.41;5148392;27;20231;-80
2022/05/09 06:05:19;;;;;;;7.22;3.45;;;;;;;27.93;34.07;95179.06;5146646;27;20195;-77
2022/05/09 06:07:48;;;;;;;5.35;3.95;;;;;;;28.13;34.60;95189.19;5149209;27;20180;-78
2022/05/09 06:10:18;;;;;;;6.75;3.70;;;;;;;28.33;34.31;95186.13;5149498;27;20195;-79
2022/05/09 06:12:47;;;;;;;6.32;3.53;;;;;;;28.44;33.75;95174.75;5148166;27;20303;-81
2022/05/09 06:15:28;;;;;;;4.88;3.75;;;;;;;28.67;33.29;95186.97;5147277;27;20268;-81
2022/05/09 06:17:57;;;;;;;3.97;3.20;;;;;;;28.82;32.59;95184.59;5148075;27;20709;-79
2022/05/09 06:20:25;;;;;;;5.93;3.63;;;;;;;28.96;32.80;95188.53;5148090;27;20187;-79
2022/05/09 06:22:54;;;;;;;6.72;3.58;;;;;;;29.10;32.14;95185.56;5144916;27;20192;-78
2022/05/09 06:25:23;;;;;;;5.18;3.30;;;;;;;29.16;32.03;95184.59;5147339;27;20266;-78
2022/05/09 06:27:50;;;;;;;7.65;3.80;;;;;;;28.81;31.77;95105.84;5139587;27;20276;-79
2022/05/09 06:30:19;;;;;;;5.50;3.50;;;;;;;29.46;31.51;95185.03;5147904;27;20207;-81
2022/05/09 06:32:46;;;;;;;5.72;3.75;;;;;;;29.59;30.98;95185.72;5144452;27;20219;-78
2022/05/09 06:35:15;;;;;;;6.15;3.75;;;;;;;29.39;31.34;95144.06;5145830;27;20193;-78
2022/05/09 06:37:43;;;;;;;6.80;3.88;;;;;;;29.77;30.90;95185.44;5148616;27;20664;-79
2022/05/09 06:40:11;;;;;;;7.07;4.20;;;;;;;29.65;30.77;95148.63;5147033;27;20183;-76
2022/05/09 06:42:40;;;;;;;5.95;3.60;;;;;;;29.95;30.87;95182.47;5146590;27;20191;-77
2022/05/09 06:45:08;;;;;;;5.38;3.67;;;;;;;30.01;31.12;95183.34;5146458;27;20191;-81
2022/05/09 06:47:35;;;;;;;7.07;3.60;;;;;;;30.16;30.62;95182.72;5145829;27;20200;-76
2022/05/09 06:50:05;;;;;;;5.97;3.47;;;;;;;30.21;30.74;95182.75;5146475;27;20176;-79
2022/05/09 06:52:32;;;;;;;4.72;4.22;;;;;;;30.30;30.26;95185.75;5147963;27;20780;-78
2022/05/09 06:54:58;;;;;;;7.90;4.10;;;;;;;30.36;30.05;95175.00;5148685;27;20601;-77
2022/05/09 06:57:27;;;;;;;7.68;4.13;;;;;;;30.40;30.12;95167.38;5148530;27;20202;-77
2022/05/09 06:59:55;;;;;;;5.43;4.18;;;;;;;30.59;29.76;95188.94;5148717;27;20191;-78
2022/05/09 07:02:22;;;;;;;6.55;4.25;;;;;;;30.29;30.25;95126.91;5148802;27;20227;-79
2022/05/09 07:04:49;;;;;;;6.85;4.00;;;;;;;30.70;30.00;95186.13;5146594;27;20191;-78
2022/05/09 07:07:15;;;;;;;4.72;4.07;;;;;;;30.48;29.64;95145.78;5148397;27;20704;-80
2022/05/09 07:09:42;;;;;;;7.32;4.28;;;;;;;30.77;29.37;95182.50;5147922;27;20187;-80
2022/05/09 07:12:10;;;;;;;8.23;4.53;;;;;;;30.44;29.68;95126.22;5146038;27;20495;-78
2022/05/09 07:14:37;;;;;;;6.85;4.50;;;;;;;30.84;29.57;95175.16;5143266;27;20303;-78
2022/05/09 07:17:05;;;;;;;4.55;3.80;;;;;;;30.90;29.34;95182.06;5146674;27;20183;-79
2022/05/09 07:19:32;;;;;;;9.90;4.15;;;;;;;30.86;29.53;95170.41;5146964;27;20288;-80
2022/05/09 07:21:59;;;;;;;8.98;4.70;;;;;;;30.88;29.38;95173.63;5147414;27;20191;-81
2022/05/09 07:24:26;;;;;;;4.47;4.05;;;;;;;31.01;29.88;95181.09;5148426;27;20195;-80
2022/05/09 07:26:53;;;;;;;4.82;3.50;;;;;;;31.07;30.51;95184.56;5151223;27;20295;-79
2022/05/09 07:29:19;;;;;;;7.82;3.78;;;;;;;31.10;30.26;95179.56;5149279;27;20191;-79
2022/05/09 07:31:46;;;;;;;4.47;3.78;;;;;;;31.11;29.60;95186.44;5150870;27;20187;-82
2022/05/09 07:34:14;;;;;;;6.30;4.13;;;;;;;31.12;30.07;95180.09;5150828;27;20240;-78
2022/05/09 07:36:41;;;;;;;5.72;3.58;;;;;;;31.08;29.93;95165.00;5152529;27;20580;-78
2022/05/09 07:39:08;;;;;;;5.13;3.50;;;;;;;31.19;30.44;95179.91;5152309;27;20191;-77
2022/05/09 07:41:35;;;;;;;2.90;2.70;;;;;;;31.11;30.88;95162.66;5152268;27;20191;-78
2022/05/09 07:44:02;;;;;;;5.97;3.40;;;;;;;31.27;30.44;95175.97;5140181;27;20222;-83
2022/05/09 07:46:29;;;;;;;3.60;2.90;;;;;;;31.19;30.89;95166.69;5158013;27;20209;-84
2022/05/09 07:48:56;;;;;;;5.45;2.80;;;;;;;30.70;30.71;95075.22;5157452;27;20192;-81
2022/05/09 07:51:24;;;;;;;4.47;2.92;;;;;;;31.45;31.16;95179.00;5152817;27;20203;-81
2022/05/09 07:53:51;;;;;;;5.60;3.00;;;;;;;31.42;31.01;95168.94;5153367;27;20681;-85
2022/05/09 07:56:18;;;;;;;5.00;3.20;;;;;;;31.38;31.11;95149.34;5154994;27;20207;-79
2022/05/09 07:58:45;;;;;;;4.78;3.15;;;;;;;31.52;31.09;95156.81;5150020;27;20180;-79
2022/05/09 08:01:12;;;;;;;7.55;3.10;;;;;;;31.70;31.13;95182.84;5144182;27;20202;-78
2022/05/09 08:03:39;;;;;;;4.20;2.85;;;;;;;31.73;30.78;95174.38;5138858;27;20738;-84
2022/05/09 08:06:07;;;;;;;3.38;2.55;;;;;;;30.80;30.96;95034.09;5141311;27;20216;-81
2022/05/09 08:08:37;;;;;;;4.55;2.78;;;;;;;31.77;30.69;95183.38;5152238;27;20534;-80
2022/05/09 08:11:05;;;;;;;4.35;2.70;;;;;;;31.76;30.29;95181.00;5158192;27;20187;-81
2022/05/09 08:13:34;;;;;;;3.90;2.80;;;;;;;31.77;30.69;95186.03;5152433;27;20661;-81
2022/05/09 08:16:02;;;;;;;6.28;3.00;;;;;;;31.73;30.15;95180.44;5149383;27;20204;-79
2022/05/09 08:18:30;;;;;;;5.53;2.47;;;;;;;31.67;29.56;95176.19;5151823;27;20236;-78
2022/05/09 08:20:59;;;;;;;4.15;2.90;;;;;;;31.46;28.79;95164.72;5150764;27;20608;-81
2022/05/09 08:23:27;;;;;;;5.93;3.17;;;;;;;31.46;28.58;95179.81;5147907;27;20200;-80
2022/05/09 08:25:56;;;;;;;3.03;2.60;;;;;;;31.26;28.02;95163.78;5150391;27;20677;-82
2022/05/09 08:28:24;;;;;;;6.00;2.90;;;;;;;31.11;28.03;95169.81;5151623;27;20198;-79
2022/05/09 08:30:52;;;;;;;4.47;3.17;;;;;;;31.07;28.92;95176.66;5153357;27;20207;-78
2022/05/09 08:33:21;;;;;;;8.05;3.70;;;;;;;30.99;29.11;95177.91;5150299;27;20691;-78
2022/05/09 08:35:50;;;;;;;6.85;2.65;;;;;;;30.80;28.47;95159.03;5153587;27;20270;-78
2022/05/09 08:38:17;;;;;;;5.93;2.83;;;;;;;30.77;28.58;95185.94;5151243;27;20176;-79
2022/05/09 08:41:02;;;;;;;7.65;3.17;;;;;;;30.62;28.78;95168.09;5154219;27;20198;-80
2022/05/09 08:43:51;;;;;;;5.57;2.65;;;;;;;30.62;28.98;95175.22;5165266;27;20188;-77
2022/05/09 08:46:28;;;;;;;3.47;2.45;;;;;;;30.54;29.33;95179.13;5150218;27;20199;-78
2022/05/09 08:49:07;;;;;;;3.28;2.55;;;;;;;30.44;29.30;95181.66;5153680;27;20197;-78
2022/05/09 08:51:44;;;;;;;9.95;2.92;;;;;;;30.36;29.77;95163.66;5153185;27;20191;-79
2022/05/09 08:54:18;;;;;;;3.33;2.65;;;;;;;30.28;29.30;95172.81;5150825;27;20211;-77
2022/05/09 08:56:46;;;;;;;3.42;2.50;;;;;;;30.16;28.99;95172.97;5151867;27;20175;-79
2022/05/09 08:59:23;;;;;;;2.78;2.47;;;;;;;29.72;28.76;95119.44;5152869;27;20184;-79
2022/05/09 09:01:54;;;;;;;4.82;3.13;;;;;;;29.97;28.76;95171.69;5151560;27;20217;-78
2022/05/09 09:04:23;;;;;;;7.05;2.75;;;;;;;29.88;29.50;95165.22;5148438;27;20231;-78
2022/05/09 09:07:04;;;;;;;2.80;2.50;;;;;;;29.80;29.14;95165.69;5151428;27;20195;-77
2022/05/09 09:09:43;;;;;;;4.45;2.85;;;;;;;29.55;28.95;95150.34;5148385;27;20215;-82
2022/05/09 09:12:20;;;;;;;9.25;3.15;;;;;;;29.33;28.40;95129.25;5150955;27;20191;-81
2022/05/09 09:14:59;;;;;;;6.53;2.55;;;;;;;29.44;28.52;95154.66;5151757;27;20219;-83
2022/05/09 09:17:37;;;;;;;3.00;2.78;;;;;;;29.32;28.97;95152.16;5149639;27;20661;-80
2022/05/09 09:20:14;;;;;;;2.58;2.38;;;;;;;29.22;28.96;95159.91;5150773;27;20549;-78
2022/05/09 09:22:59;;;;;;;5.50;2.95;;;;;;;28.95;30.06;95133.44;5145905;27;20666;-77
2022/05/09 09:25:41;;;;;;;3.92;2.88;;;;;;;29.07;30.12;95160.50;5151770;27;20226;-80
2022/05/09 09:28:12;;;;;;;5.30;3.20;;;;;;;29.00;30.75;95152.75;5149459;27;20249;-79
2022/05/09 09:30:41;;;;;;;4.80;2.92;;;;;;;28.93;30.95;95151.28;5157830;27;20195;-78
2022/05/09 09:33:11;;;;;;;2.58;2.28;;;;;;;28.87;31.12;95145.16;5153034;27;20203;-77
2022/05/09 09:35:47;;;;;;;3.88;2.47;;;;;;;28.74;30.33;95138.41;5151298;27;20596;-78
2022/05/09 09:38:22;;;;;;;4.80;2.72;;;;;;;28.50;30.91;95108.03;5150768;27;20647;-80
2022/05/09 09:40:49;;;;;;;4.07;2.50;;;;;;;28.59;30.81;95135.53;5145896;27;20195;-79
2022/05/09 09:43:16;;;;;;;6.70;1.92;;;;;;;28.59;29.67;95148.72;5151659;27;20236;-83
2022/05/09 09:45:50;;;;;;;6.43;2.45;;;;;;;28.53;29.78;95140.94;5150395;27;20192;-84
2022/05/09 09:48:21;;;;;;;3.35;2.38;;;;;;;28.12;29.35;95088.44;5150137;27;20191;-79
2022/05/09 09:50:55;;;;;;;4.63;2.28;;;;;;;28.38;28.69;95134.41;5158455;27;20195;-82
2022/05/09 09:53:38;;;;;;;3.70;2.45;;;;;;;28.26;28.78;95131.03;5156955;27;20222;-80
2022/05/09 09:56:11;;;;;;;2.30;2.03;;;;;;;28.19;29.70;95133.78;5153989;27;20195;-83
2022/05/09 09:58:39;;;;;;;2.15;1.95;;;;;;;28.18;29.69;95140.09;5155897;27;20202;-85
2022/05/09 10:01:12;;;;;;;4.78;2.20;;;;;;;28.12;29.10;95146.31;5154138;27;20215;-86
2022/05/09 10:03:42;;;;;;;2.28;2.08;;;;;;;28.06;29.23;95135.91;5155741;27;20233;-83
2022/05/09 10:06:17;;;;;;;2.50;2.00;;;;;;;27.94;29.80;95128.09;5156663;27;20176;-84
2022/05/09 10:08:45;;;;;;;2.28;2.08;;;;;;;27.95;29.96;95135.75;5155425;27;20195;-82
2022/05/09 10:11:21;;;;;;;3.55;2.45;;;;;;;27.85;29.64;95121.59;5152190;27;20214;-79
2022/05/09 10:13:49;;;;;;;3.22;2.15;;;;;;;27.87;30.63;95133.47;5150810;27;20222;-79
2022/05/09 10:16:28;;;;;;;5.05;1.90;;;;;;;27.58;30.55;95090.59;5150403;27;20196;-80
2022/05/09 10:18:55;;;;;;;1.80;1.70;;;;;;;27.60;30.57;95093.78;5153760;27;20184;-81
2022/05/09 10:27:07;;;;;;;3.00;1.90;;;;;;;27.67;29.95;95130.44;5162631;27;20224;-80
2022/05/09 10:29:40;;;;;;;1.95;1.75;;;;;;;27.72;29.95;95127.91;5154244;27;20180;-81
2022/05/09 10:32:12;;;;;;;3.30;2.13;;;;;;;27.72;29.37;95117.38;5147505;27;20206;-83
2022/05/09 10:34:47;;;;;;;3.25;2.20;;;;;;;27.58;30.12;95101.09;5152730;27;20226;-82
2022/05/09 10:37:23;;;;;;;4.53;2.58;;;;;;;27.74;30.23;95125.88;5149748;27;20194;-83
2022/05/09 10:39:54;;;;;;;2.97;2.63;;;;;;;27.75;30.22;95123.00;5149190;27;20199;-84
2022/05/09 10:42:34;;;;;;;3.20;2.00;;;;;;;27.65;30.48;95101.78;5152822;27;20211;-81
2022/05/09 10:45:07;;;;;;;1.92;1.83;;;;;;;27.84;30.16;95127.91;5152076;27;20264;-85
2022/05/09 10:47:41;;;;;;;2.45;2.10;;;;;;;27.90;28.76;95116.47;5152996;27;20187;-83
2022/05/09 10:50:16;;;;;;;3.88;2.03;;;;;;;27.96;28.57;95115.50;5152687;27;20191;-79
2022/05/09 10:52:51;;;;;;;3.90;1.80;;;;;;;28.05;28.67;95119.34;5151262;27;20191;-82
2022/05/09 10:55:23;;;;;;;2.60;1.90;;;;;;;27.98;28.41;95089.78;5151215;27;20183;-81
2022/05/09 10:58:01;;;;;;;1.88;1.70;;;;;;;28.24;29.37;95114.69;5149913;27;20192;-79
2022/05/09 11:00:29;;;;;;;2.00;1.80;;;;;;;28.35;29.21;95108.56;5145185;27;20203;-82
2022/05/09 11:03:07;;;;;;;1.88;1.70;;;;;;;28.43;29.08;95097.66;5148382;27;20651;-82
2022/05/09 11:05:47;;;;;;;2.83;1.80;;;;;;;28.54;29.72;95103.88;5152141;27;20187;-80
2022/05/09 11:08:24;;;;;;;4.28;1.70;;;;;;;28.65;29.10;95100.34;5147160;27;20198;-84
2022/05/09 11:11:01;;;;;;;2.83;1.65;;;;;;;28.73;27.99;95104.41;5149045;27;20183;-84
2022/05/09 11:13:35;;;;;;;2.80;2.03;;;;;;;28.68;28.18;95094.63;5147277;27;20199;-79
2022/05/09 11:16:14;;;;;;;3.20;1.80;;;;;;;28.85;27.58;95109.59;5147816;27;20619;-82
2022/05/09 11:19:08;;;;;;;3.38;1.80;;;;;;;28.16;27.65;94988.81;5148894;27;20206;-81
2022/05/09 11:21:47;;;;;;;3.08;2.10;;;;;;;28.75;27.98;95097.84;5145326;27;20650;-80
2022/05/09 11:24:29;;;;;;;5.13;2.33;;;;;;;28.45;29.03;95061.38;5147443;27;20195;-82
2022/05/09 11:27:06;;;;;;;4.28;2.00;;;;;;;28.52;29.19;95092.00;5147608;27;20215;-81
2022/05/09 11:29:53;;;;;;;3.47;2.00;;;;;;;28.28;30.28;95065.78;5154042;27;20255;-79
2022/05/09 11:32:32;;;;;;;3.15;2.05;;;;;;;27.93;29.80;95037.88;5152288;27;20195;-78
2022/05/09 11:35:32;;;;;;;3.13;1.83;;;;;;;28.13;28.68;95079.50;5157767;27;20227;-83
2022/05/09 11:38:41;;;;;;;6.30;2.00;;;;;;;27.90;30.43;95056.00;5085475;28;20259;-81
2022/05/09 11:41:23;;;;;;;1.88;1.55;;;;;;;27.89;30.04;95073.59;5005139;28;20250;-80
2022/05/09 11:44:04;;;;;;;4.22;1.88;;;;;;;27.81;30.92;95071.34;5007025;28;20242;-81
2022/05/09 11:46:43;;;;;;;6.50;2.15;;;;;;;27.59;31.57;95049.34;5009113;28;20193;-78
2022/05/09 11:49:33;;;;;;;2.83;1.70;;;;;;;27.64;30.66;95067.84;5008629;28;20207;-79
2022/05/09 11:52:07;;;;;;;2.83;1.90;;;;;;;27.40;30.69;95041.66;5005665;28;20227;-79
2022/05/09 11:54:38;;;;;;;2.30;2.08;;;;;;;27.09;31.01;94997.44;5004877;28;20237;-80
2022/05/09 11:57:10;;;;;;;3.30;1.88;;;;;;;27.00;30.06;94995.16;5005646;28;20227;-80
2022/05/09 11:59:39;;;;;;;2.20;1.95;;;;;;;27.35;29.46;95064.41;5010877;28;20204;-81
2022/05/09 12:02:07;;;;;;;4.38;1.85;;;;;;;27.31;29.34;95064.06;5004065;28;20193;-86